sensor_id;sensor_type;location;lat;lon;timestamp;P1;durP1;ratioP1;P2;durP2;ratioP2
7841;SDS011;3966;51.052;13.820;2022-07-29T00:00:59;1.20;;;0.90;;
7841;SDS011;3966;51.052;13.820;2022-07-29T00:03:25;1.80;;;1.02;;
7841;SDS011;3966;51.052;13.820;2022-07-29T00:05:50;4.60;;;1.30;;
7841;SDS011;3966;51.052;13.820;2022-07-29T00:08:18;2.60;;;0.80;;
7841;SDS011;3966;51.052;13.820;2022-07-29T00:10:43;4.45;;;1.00;;
7841;SDS011;3966;51.052;13.820;2022-07-29T00:13:09;3.97;;;1.20;;
7841;SDS011;3966;51.052;13.820;2022-07-29T00:15:35;3.92;;;1.10;;
7841;SDS011;3966;51.052;13.820;2022-07-29T00:18:00;4.70;;;1.17;;
7841;SDS011;3966;51.052;13.820;2022-07-29T00:20:26;6.45;;;0.82;;
7841;SDS011;3966;51.052;13.820;2022-07-29T00:22:52;5.93;;;1.20;;
7841;SDS011;3966;51.052;13.820;2022-07-29T00:25:18;1.00;;;0.70;;
7841;SDS011;3966;51.052;13.820;2022-07-29T00:27:43;5.82;;;1.20;;
7841;SDS011;3966;51.052;13.820;2022-07-29T00:30:10;1.15;;;1.05;;
7841;SDS011;3966;51.052;13.820;2022-07-29T00:32:36;1.48;;;1.17;;
7841;SDS011;3966;51.052;13.820;2022-07-29T00:35:02;2.92;;;1.00;;
7841;SDS011;3966;51.052;13.820;2022-07-29T00:37:47;2.47;;;0.80;;
7841;SDS011;3966;51.052;13.820;2022-07-29T00:40:12;7.75;;;1.00;;
7841;SDS011;3966;51.052;13.820;2022-07-29T00:42:45;3.88;;;1.58;;
7841;SDS011;3966;51.052;13.820;2022-07-29T00:45:12;2.58;;;0.90;;
7841;SDS011;3966;51.052;13.820;2022-07-29T00:47:38;2.95;;;1.38;;
7841;SDS011;3966;51.052;13.820;2022-07-29T00:50:05;2.95;;;1.10;;
7841;SDS011;3966;51.052;13.820;2022-07-29T00:52:32;3.63;;;1.00;;
7841;SDS011;3966;51.052;13.820;2022-07-29T00:54:58;3.08;;;0.90;;
7841;SDS011;3966;51.052;13.820;2022-07-29T00:57:23;4.25;;;1.08;;
7841;SDS011;3966;51.052;13.820;2022-07-29T00:59:49;5.50;;;1.15;;
7841;SDS011;3966;51.052;13.820;2022-07-29T01:02:14;2.40;;;0.80;;
7841;SDS011;3966;51.052;13.820;2022-07-29T01:04:40;4.80;;;0.90;;
7841;SDS011;3966;51.052;13.820;2022-07-29T01:07:06;1.92;;;1.00;;
7841;SDS011;3966;51.052;13.820;2022-07-29T01:09:32;4.25;;;1.52;;
7841;SDS011;3966;51.052;13.820;2022-07-29T01:11:58;2.83;;;1.05;;
7841;SDS011;3966;51.052;13.820;2022-07-29T01:14:25;3.40;;;1.15;;
7841;SDS011;3966;51.052;13.820;2022-07-29T01:16:51;4.63;;;1.55;;
7841;SDS011;3966;51.052;13.820;2022-07-29T01:19:33;4.07;;;1.20;;
7841;SDS011;3966;51.052;13.820;2022-07-29T01:22:14;2.25;;;1.15;;
7841;SDS011;3966;51.052;13.820;2022-07-29T01:25:03;2.08;;;1.40;;
7841;SDS011;3966;51.052;13.820;2022-07-29T01:30:46;1.67;;;1.00;;
7841;SDS011;3966;51.052;13.820;2022-07-29T01:33:17;2.50;;;1.13;;
7841;SDS011;3966;51.052;13.820;2022-07-29T01:36:07;8.40;;;1.58;;
7841;SDS011;3966;51.052;13.820;2022-07-29T01:38:37;4.97;;;1.23;;
7841;SDS011;3966;51.052;13.820;2022-07-29T01:41:06;2.70;;;1.35;;
7841;SDS011;3966;51.052;13.820;2022-07-29T01:43:56;4.05;;;1.30;;
7841;SDS011;3966;51.052;13.820;2022-07-29T01:46:33;5.65;;;1.50;;
7841;SDS011;3966;51.052;13.820;2022-07-29T01:49:05;2.60;;;1.20;;
7841;SDS011;3966;51.052;13.820;2022-07-29T01:51:38;8.32;;;1.25;;
7841;SDS011;3966;51.052;13.820;2022-07-29T01:54:19;4.00;;;1.55;;
7841;SDS011;3966;51.052;13.820;2022-07-29T01:56:51;2.55;;;1.35;;
7841;SDS011;3966;51.052;13.820;2022-07-29T01:59:20;2.13;;;1.33;;
7841;SDS011;3966;51.052;13.820;2022-07-29T02:01:47;3.35;;;1.20;;
7841;SDS011;3966;51.052;13.820;2022-07-29T02:04:15;4.28;;;1.30;;
7841;SDS011;3966;51.052;13.820;2022-07-29T02:06:42;3.33;;;1.10;;
7841;SDS011;3966;51.052;13.820;2022-07-29T02:09:10;6.10;;;1.40;;
7841;SDS011;3966;51.052;13.820;2022-07-29T02:11:38;3.78;;;1.25;;
7841;SDS011;3966;51.052;13.820;2022-07-29T02:14:07;3.33;;;1.20;;
7841;SDS011;3966;51.052;13.820;2022-07-29T02:16:35;2.05;;;1.30;;
7841;SDS011;3966;51.052;13.820;2022-07-29T02:19:03;4.07;;;1.70;;
7841;SDS011;3966;51.052;13.820;2022-07-29T02:21:31;5.72;;;1.75;;
7841;SDS011;3966;51.052;13.820;2022-07-29T02:23:59;2.60;;;1.52;;
7841;SDS011;3966;51.052;13.820;2022-07-29T02:26:26;3.65;;;1.60;;
7841;SDS011;3966;51.052;13.820;2022-07-29T02:28:54;3.08;;;1.88;;
7841;SDS011;3966;51.052;13.820;2022-07-29T02:31:23;3.58;;;1.90;;
7841;SDS011;3966;51.052;13.820;2022-07-29T02:33:51;4.95;;;1.83;;
7841;SDS011;3966;51.052;13.820;2022-07-29T02:36:18;5.13;;;2.25;;
7841;SDS011;3966;51.052;13.820;2022-07-29T02:38:47;4.50;;;1.63;;
7841;SDS011;3966;51.052;13.820;2022-07-29T02:41:26;3.13;;;1.50;;
7841;SDS011;3966;51.052;13.820;2022-07-29T02:44:08;4.80;;;1.80;;
7841;SDS011;3966;51.052;13.820;2022-07-29T02:46:36;9.82;;;1.90;;
7841;SDS011;3966;51.052;13.820;2022-07-29T02:52:04;4.40;;;1.80;;
7841;SDS011;3966;51.052;13.820;2022-07-29T02:54:44;4.82;;;1.73;;
7841;SDS011;3966;51.052;13.820;2022-07-29T02:57:22;5.65;;;1.80;;
7841;SDS011;3966;51.052;13.820;2022-07-29T03:00:04;2.78;;;1.42;;
7841;SDS011;3966;51.052;13.820;2022-07-29T03:02:34;2.63;;;1.35;;
7841;SDS011;3966;51.052;13.820;2022-07-29T03:05:03;4.07;;;1.58;;
7841;SDS011;3966;51.052;13.820;2022-07-29T03:07:31;2.80;;;1.30;;
7841;SDS011;3966;51.052;13.820;2022-07-29T03:09:57;6.95;;;1.60;;
7841;SDS011;3966;51.052;13.820;2022-07-29T03:12:23;2.85;;;1.58;;
7841;SDS011;3966;51.052;13.820;2022-07-29T03:14:51;6.63;;;1.75;;
7841;SDS011;3966;51.052;13.820;2022-07-29T03:17:17;2.85;;;1.70;;
7841;SDS011;3966;51.052;13.820;2022-07-29T03:19:43;5.25;;;1.58;;
7841;SDS011;3966;51.052;13.820;2022-07-29T03:22:09;1.95;;;1.67;;
7841;SDS011;3966;51.052;13.820;2022-07-29T03:24:35;4.75;;;1.75;;
7841;SDS011;3966;51.052;13.820;2022-07-29T03:27:03;5.35;;;1.98;;
7841;SDS011;3966;51.052;13.820;2022-07-29T03:29:30;4.32;;;1.80;;
7841;SDS011;3966;51.052;13.820;2022-07-29T03:31:55;4.68;;;1.67;;
7841;SDS011;3966;51.052;13.820;2022-07-29T03:34:21;5.20;;;1.90;;
7841;SDS011;3966;51.052;13.820;2022-07-29T03:36:46;5.45;;;1.95;;
7841;SDS011;3966;51.052;13.820;2022-07-29T03:39:13;2.28;;;1.80;;
7841;SDS011;3966;51.052;13.820;2022-07-29T03:41:42;6.57;;;1.98;;
7841;SDS011;3966;51.052;13.820;2022-07-29T03:44:11;5.15;;;1.95;;
7841;SDS011;3966;51.052;13.820;2022-07-29T03:46:38;7.13;;;1.92;;
7841;SDS011;3966;51.052;13.820;2022-07-29T03:49:04;3.35;;;1.27;;
7841;SDS011;3966;51.052;13.820;2022-07-29T03:51:33;4.00;;;1.80;;
7841;SDS011;3966;51.052;13.820;2022-07-29T03:53:58;4.80;;;1.67;;
7841;SDS011;3966;51.052;13.820;2022-07-29T03:56:25;4.90;;;2.45;;
7841;SDS011;3966;51.052;13.820;2022-07-29T03:58:52;3.22;;;1.77;;
7841;SDS011;3966;51.052;13.820;2022-07-29T04:01:18;8.43;;;1.70;;
7841;SDS011;3966;51.052;13.820;2022-07-29T04:03:45;6.00;;;1.70;;
7841;SDS011;3966;51.052;13.820;2022-07-29T04:06:12;7.05;;;2.25;;
7841;SDS011;3966;51.052;13.820;2022-07-29T04:08:37;3.97;;;2.13;;
7841;SDS011;3966;51.052;13.820;2022-07-29T04:11:03;7.25;;;2.42;;
7841;SDS011;3966;51.052;13.820;2022-07-29T04:13:30;4.90;;;2.78;;
7841;SDS011;3966;51.052;13.820;2022-07-29T04:15:56;3.65;;;2.15;;
7841;SDS011;3966;51.052;13.820;2022-07-29T04:18:22;3.00;;;1.60;;
7841;SDS011;3966;51.052;13.820;2022-07-29T04:20:48;2.67;;;1.88;;
7841;SDS011;3966;51.052;13.820;2022-07-29T04:23:13;2.13;;;1.77;;
7841;SDS011;3966;51.052;13.820;2022-07-29T04:25:39;5.88;;;2.22;;
7841;SDS011;3966;51.052;13.820;2022-07-29T04:28:05;3.90;;;1.90;;
7841;SDS011;3966;51.052;13.820;2022-07-29T04:30:31;6.40;;;2.40;;
7841;SDS011;3966;51.052;13.820;2022-07-29T04:32:58;8.75;;;2.30;;
7841;SDS011;3966;51.052;13.820;2022-07-29T04:35:25;5.35;;;2.30;;
7841;SDS011;3966;51.052;13.820;2022-07-29T04:37:51;7.47;;;2.60;;
7841;SDS011;3966;51.052;13.820;2022-07-29T04:40:17;11.15;;;4.10;;
7841;SDS011;3966;51.052;13.820;2022-07-29T04:42:42;8.50;;;3.65;;
7841;SDS011;3966;51.052;13.820;2022-07-29T04:45:08;7.85;;;3.53;;
7841;SDS011;3966;51.052;13.820;2022-07-29T04:47:33;6.18;;;3.78;;
7841;SDS011;3966;51.052;13.820;2022-07-29T04:49:59;10.95;;;4.60;;
7841;SDS011;3966;51.052;13.820;2022-07-29T04:52:25;10.32;;;5.20;;
7841;SDS011;3966;51.052;13.820;2022-07-29T04:54:50;14.02;;;5.70;;
7841;SDS011;3966;51.052;13.820;2022-07-29T04:57:19;11.55;;;4.78;;
7841;SDS011;3966;51.052;13.820;2022-07-29T04:59:44;10.07;;;4.82;;
7841;SDS011;3966;51.052;13.820;2022-07-29T05:02:10;10.88;;;4.43;;
7841;SDS011;3966;51.052;13.820;2022-07-29T05:04:35;18.73;;;4.82;;
7841;SDS011;3966;51.052;13.820;2022-07-29T05:07:01;7.60;;;3.15;;
7841;SDS011;3966;51.052;13.820;2022-07-29T05:09:26;6.05;;;3.70;;
7841;SDS011;3966;51.052;13.820;2022-07-29T05:11:51;11.50;;;2.85;;
7841;SDS011;3966;51.052;13.820;2022-07-29T05:14:17;8.57;;;3.28;;
7841;SDS011;3966;51.052;13.820;2022-07-29T05:16:42;10.43;;;3.28;;
7841;SDS011;3966;51.052;13.820;2022-07-29T05:19:08;5.07;;;2.55;;
7841;SDS011;3966;51.052;13.820;2022-07-29T05:21:34;8.10;;;2.65;;
7841;SDS011;3966;51.052;13.820;2022-07-29T05:23:59;4.88;;;2.55;;
7841;SDS011;3966;51.052;13.820;2022-07-29T05:26:25;4.20;;;2.67;;
7841;SDS011;3966;51.052;13.820;2022-07-29T05:28:51;6.45;;;2.90;;
7841;SDS011;3966;51.052;13.820;2022-07-29T05:31:16;6.63;;;2.45;;
7841;SDS011;3966;51.052;13.820;2022-07-29T05:33:42;5.35;;;2.42;;
7841;SDS011;3966;51.052;13.820;2022-07-29T05:36:08;7.07;;;2.63;;
7841;SDS011;3966;51.052;13.820;2022-07-29T05:38:34;5.80;;;2.85;;
7841;SDS011;3966;51.052;13.820;2022-07-29T05:41:00;7.00;;;2.85;;
7841;SDS011;3966;51.052;13.820;2022-07-29T05:43:26;7.97;;;3.05;;
7841;SDS011;3966;51.052;13.820;2022-07-29T05:45:52;7.05;;;2.80;;
7841;SDS011;3966;51.052;13.820;2022-07-29T05:48:18;8.52;;;3.75;;
7841;SDS011;3966;51.052;13.820;2022-07-29T05:50:43;10.18;;;5.15;;
7841;SDS011;3966;51.052;13.820;2022-07-29T05:53:09;9.05;;;5.30;;
7841;SDS011;3966;51.052;13.820;2022-07-29T05:55:34;13.50;;;6.40;;
7841;SDS011;3966;51.052;13.820;2022-07-29T05:58:00;10.52;;;5.00;;
7841;SDS011;3966;51.052;13.820;2022-07-29T06:00:25;22.90;;;7.35;;
7841;SDS011;3966;51.052;13.820;2022-07-29T06:02:50;20.58;;;7.47;;
7841;SDS011;3966;51.052;13.820;2022-07-29T06:05:16;14.52;;;6.65;;
7841;SDS011;3966;51.052;13.820;2022-07-29T06:07:42;24.10;;;8.45;;
7841;SDS011;3966;51.052;13.820;2022-07-29T06:10:07;16.90;;;8.65;;
7841;SDS011;3966;51.052;13.820;2022-07-29T06:12:34;27.67;;;10.32;;
7841;SDS011;3966;51.052;13.820;2022-07-29T06:14:59;24.67;;;10.13;;
7841;SDS011;3966;51.052;13.820;2022-07-29T06:17:25;19.17;;;10.30;;
7841;SDS011;3966;51.052;13.820;2022-07-29T06:19:50;25.58;;;10.30;;
7841;SDS011;3966;51.052;13.820;2022-07-29T06:22:16;24.05;;;9.70;;
7841;SDS011;3966;51.052;13.820;2022-07-29T06:24:42;21.58;;;10.02;;
7841;SDS011;3966;51.052;13.820;2022-07-29T06:27:09;22.08;;;10.07;;
7841;SDS011;3966;51.052;13.820;2022-07-29T06:29:37;25.83;;;10.23;;
7841;SDS011;3966;51.052;13.820;2022-07-29T06:32:03;20.80;;;8.80;;
7841;SDS011;3966;51.052;13.820;2022-07-29T06:34:29;23.38;;;9.98;;
7841;SDS011;3966;51.052;13.820;2022-07-29T06:36:55;19.10;;;7.90;;
7841;SDS011;3966;51.052;13.820;2022-07-29T06:39:20;21.73;;;8.88;;
7841;SDS011;3966;51.052;13.820;2022-07-29T06:41:46;16.92;;;8.40;;
7841;SDS011;3966;51.052;13.820;2022-07-29T06:44:16;21.65;;;8.63;;
7841;SDS011;3966;51.052;13.820;2022-07-29T06:46:43;28.15;;;10.50;;
7841;SDS011;3966;51.052;13.820;2022-07-29T06:49:09;21.27;;;9.73;;
7841;SDS011;3966;51.052;13.820;2022-07-29T06:51:34;24.83;;;9.45;;
7841;SDS011;3966;51.052;13.820;2022-07-29T06:54:01;21.08;;;10.50;;
7841;SDS011;3966;51.052;13.820;2022-07-29T06:56:27;28.27;;;12.02;;
7841;SDS011;3966;51.052;13.820;2022-07-29T06:58:54;27.75;;;10.65;;
7841;SDS011;3966;51.052;13.820;2022-07-29T07:01:20;24.20;;;10.93;;
7841;SDS011;3966;51.052;13.820;2022-07-29T07:03:45;19.90;;;9.70;;
7841;SDS011;3966;51.052;13.820;2022-07-29T07:06:11;24.55;;;11.82;;
7841;SDS011;3966;51.052;13.820;2022-07-29T07:08:36;25.08;;;12.85;;
7841;SDS011;3966;51.052;13.820;2022-07-29T07:11:01;25.13;;;12.50;;
7841;SDS011;3966;51.052;13.820;2022-07-29T07:13:28;33.95;;;14.25;;
7841;SDS011;3966;51.052;13.820;2022-07-29T07:15:59;32.05;;;13.43;;
7841;SDS011;3966;51.052;13.820;2022-07-29T07:18:24;25.05;;;12.43;;
7841;SDS011;3966;51.052;13.820;2022-07-29T07:20:50;31.38;;;13.85;;
7841;SDS011;3966;51.052;13.820;2022-07-29T07:23:15;27.45;;;12.63;;
7841;SDS011;3966;51.052;13.820;2022-07-29T07:25:41;26.52;;;12.45;;
7841;SDS011;3966;51.052;13.820;2022-07-29T07:28:07;21.20;;;11.15;;
7841;SDS011;3966;51.052;13.820;2022-07-29T07:30:32;24.13;;;10.82;;
7841;SDS011;3966;51.052;13.820;2022-07-29T07:32:58;22.27;;;10.73;;
7841;SDS011;3966;51.052;13.820;2022-07-29T07:35:24;25.08;;;9.77;;
7841;SDS011;3966;51.052;13.820;2022-07-29T07:37:51;29.73;;;9.90;;
7841;SDS011;3966;51.052;13.820;2022-07-29T07:40:16;16.85;;;8.45;;
7841;SDS011;3966;51.052;13.820;2022-07-29T07:42:42;17.42;;;8.43;;
7841;SDS011;3966;51.052;13.820;2022-07-29T07:45:08;19.67;;;7.97;;
7841;SDS011;3966;51.052;13.820;2022-07-29T07:47:34;20.85;;;8.70;;
7841;SDS011;3966;51.052;13.820;2022-07-29T07:50:03;17.95;;;8.30;;
7841;SDS011;3966;51.052;13.820;2022-07-29T07:52:30;19.95;;;7.18;;
7841;SDS011;3966;51.052;13.820;2022-07-29T07:54:56;17.40;;;7.50;;
7841;SDS011;3966;51.052;13.820;2022-07-29T07:57:21;19.80;;;8.55;;
7841;SDS011;3966;51.052;13.820;2022-07-29T07:59:47;24.35;;;7.88;;
7841;SDS011;3966;51.052;13.820;2022-07-29T08:02:12;15.70;;;7.88;;
7841;SDS011;3966;51.052;13.820;2022-07-29T08:04:38;20.27;;;8.45;;
7841;SDS011;3966;51.052;13.820;2022-07-29T08:07:05;15.27;;;7.78;;
7841;SDS011;3966;51.052;13.820;2022-07-29T08:09:31;14.15;;;7.40;;
7841;SDS011;3966;51.052;13.820;2022-07-29T08:11:57;20.35;;;7.43;;
7841;SDS011;3966;51.052;13.820;2022-07-29T08:14:24;13.95;;;6.75;;
7841;SDS011;3966;51.052;13.820;2022-07-29T08:16:50;14.50;;;7.03;;
7841;SDS011;3966;51.052;13.820;2022-07-29T08:19:16;16.83;;;7.20;;
7841;SDS011;3966;51.052;13.820;2022-07-29T08:21:41;13.35;;;6.93;;
7841;SDS011;3966;51.052;13.820;2022-07-29T08:24:07;18.42;;;7.53;;
7841;SDS011;3966;51.052;13.820;2022-07-29T08:26:51;12.30;;;7.13;;
7841;SDS011;3966;51.052;13.820;2022-07-29T08:29:16;16.38;;;7.03;;
7841;SDS011;3966;51.052;13.820;2022-07-29T08:31:42;18.95;;;7.30;;
7841;SDS011;3966;51.052;13.820;2022-07-29T08:34:07;14.80;;;6.93;;
7841;SDS011;3966;51.052;13.820;2022-07-29T08:36:33;14.30;;;6.95;;
7841;SDS011;3966;51.052;13.820;2022-07-29T08:38:59;14.80;;;6.40;;
7841;SDS011;3966;51.052;13.820;2022-07-29T08:41:25;13.43;;;7.65;;
7841;SDS011;3966;51.052;13.820;2022-07-29T08:43:51;18.95;;;7.35;;
7841;SDS011;3966;51.052;13.820;2022-07-29T08:46:17;15.13;;;6.82;;
7841;SDS011;3966;51.052;13.820;2022-07-29T08:48:43;16.70;;;7.18;;
7841;SDS011;3966;51.052;13.820;2022-07-29T08:51:12;14.52;;;6.80;;
7841;SDS011;3966;51.052;13.820;2022-07-29T08:53:43;16.52;;;7.80;;
7841;SDS011;3966;51.052;13.820;2022-07-29T08:56:13;15.38;;;7.82;;
7841;SDS011;3966;51.052;13.820;2022-07-29T08:58:43;17.92;;;7.38;;
7841;SDS011;3966;51.052;13.820;2022-07-29T09:01:09;13.32;;;7.18;;
7841;SDS011;3966;51.052;13.820;2022-07-29T09:03:37;20.40;;;8.57;;
7841;SDS011;3966;51.052;13.820;2022-07-29T09:06:04;14.35;;;7.47;;
7841;SDS011;3966;51.052;13.820;2022-07-29T09:08:31;15.93;;;6.75;;
7841;SDS011;3966;51.052;13.820;2022-07-29T09:10:57;15.38;;;7.50;;
7841;SDS011;3966;51.052;13.820;2022-07-29T09:13:24;15.25;;;7.55;;
7841;SDS011;3966;51.052;13.820;2022-07-29T09:15:50;12.55;;;7.63;;
7841;SDS011;3966;51.052;13.820;2022-07-29T09:18:34;17.13;;;8.60;;
7841;SDS011;3966;51.052;13.820;2022-07-29T09:21:06;14.35;;;7.80;;
7841;SDS011;3966;51.052;13.820;2022-07-29T09:26:33;16.55;;;7.40;;
7841;SDS011;3966;51.052;13.820;2022-07-29T09:29:10;15.18;;;7.35;;
7841;SDS011;3966;51.052;13.820;2022-07-29T09:31:38;15.77;;;7.05;;
7841;SDS011;3966;51.052;13.820;2022-07-29T09:34:07;14.57;;;7.38;;
7841;SDS011;3966;51.052;13.820;2022-07-29T09:39:04;18.48;;;7.57;;
7841;SDS011;3966;51.052;13.820;2022-07-29T09:41:30;13.57;;;6.93;;
7841;SDS011;3966;51.052;13.820;2022-07-29T09:44:09;16.17;;;6.53;;
7841;SDS011;3966;51.052;13.820;2022-07-29T09:46:35;13.18;;;7.13;;
7841;SDS011;3966;51.052;13.820;2022-07-29T09:49:10;12.65;;;7.22;;
7841;SDS011;3966;51.052;13.820;2022-07-29T09:51:37;16.05;;;7.65;;
7841;SDS011;3966;51.052;13.820;2022-07-29T09:54:22;14.48;;;8.38;;
7841;SDS011;3966;51.052;13.820;2022-07-29T09:56:49;19.73;;;8.80;;
7841;SDS011;3966;51.052;13.820;2022-07-29T09:59:15;20.65;;;8.38;;
7841;SDS011;3966;51.052;13.820;2022-07-29T10:01:40;16.50;;;8.13;;
7841;SDS011;3966;51.052;13.820;2022-07-29T10:04:06;15.05;;;7.40;;
7841;SDS011;3966;51.052;13.820;2022-07-29T10:06:33;15.48;;;8.23;;
7841;SDS011;3966;51.052;13.820;2022-07-29T10:09:08;10.20;;;6.72;;
7841;SDS011;3966;51.052;13.820;2022-07-29T10:11:37;9.63;;;6.47;;
7841;SDS011;3966;51.052;13.820;2022-07-29T10:14:03;10.82;;;5.97;;
7841;SDS011;3966;51.052;13.820;2022-07-29T10:16:29;11.23;;;6.00;;
7841;SDS011;3966;51.052;13.820;2022-07-29T10:18:58;9.07;;;5.22;;
7841;SDS011;3966;51.052;13.820;2022-07-29T10:21:27;9.45;;;5.13;;
7841;SDS011;3966;51.052;13.820;2022-07-29T10:23:53;9.60;;;5.20;;
7841;SDS011;3966;51.052;13.820;2022-07-29T10:26:19;9.77;;;5.18;;
7841;SDS011;3966;51.052;13.820;2022-07-29T10:28:45;9.25;;;5.25;;
7841;SDS011;3966;51.052;13.820;2022-07-29T10:31:13;7.40;;;4.20;;
7841;SDS011;3966;51.052;13.820;2022-07-29T10:33:56;8.18;;;4.68;;
7841;SDS011;3966;51.052;13.820;2022-07-29T10:36:46;9.15;;;3.88;;
7841;SDS011;3966;51.052;13.820;2022-07-29T10:39:40;9.80;;;3.63;;
7841;SDS011;3966;51.052;13.820;2022-07-29T10:42:24;5.95;;;3.40;;
7841;SDS011;3966;51.052;13.820;2022-07-29T10:44:52;3.58;;;2.33;;
7841;SDS011;3966;51.052;13.820;2022-07-29T10:47:19;1.90;;;1.77;;
7841;SDS011;3966;51.052;13.820;2022-07-29T10:50:04;6.40;;;2.13;;
7841;SDS011;3966;51.052;13.820;2022-07-29T10:55:33;3.95;;;1.95;;
7841;SDS011;3966;51.052;13.820;2022-07-29T10:58:12;2.20;;;1.75;;
7841;SDS011;3966;51.052;13.820;2022-07-29T11:00:47;3.45;;;1.88;;
7841;SDS011;3966;51.052;13.820;2022-07-29T11:03:41;3.03;;;1.75;;
7841;SDS011;3966;51.052;13.820;2022-07-29T11:06:12;5.50;;;2.03;;
7841;SDS011;3966;51.052;13.820;2022-07-29T11:08:38;5.60;;;1.52;;
7841;SDS011;3966;51.052;13.820;2022-07-29T11:16:13;2.95;;;1.77;;
7841;SDS011;3966;51.052;13.820;2022-07-29T11:21:36;2.60;;;1.77;;
7841;SDS011;3966;51.052;13.820;2022-07-29T11:24:13;2.40;;;1.98;;
7841;SDS011;3966;51.052;13.820;2022-07-29T11:26:40;2.65;;;1.73;;
7841;SDS011;3966;51.052;13.820;2022-07-29T11:29:16;2.33;;;1.85;;
7841;SDS011;3966;51.052;13.820;2022-07-29T11:31:46;2.80;;;2.00;;
7841;SDS011;3966;51.052;13.820;2022-07-29T11:44:54;5.35;;;2.95;;
7841;SDS011;3966;51.052;13.820;2022-07-29T11:47:27;8.98;;;5.60;;
7841;SDS011;3966;51.052;13.820;2022-07-29T11:49:54;13.57;;;6.97;;
7841;SDS011;3966;51.052;13.820;2022-07-29T11:52:21;12.48;;;6.82;;
7841;SDS011;3966;51.052;13.820;2022-07-29T11:54:47;13.45;;;7.00;;
7841;SDS011;3966;51.052;13.820;2022-07-29T11:57:17;11.75;;;6.35;;
7841;SDS011;3966;51.052;13.820;2022-07-29T11:59:44;4.85;;;3.65;;
7841;SDS011;3966;51.052;13.820;2022-07-29T12:02:11;11.15;;;3.33;;
7841;SDS011;3966;51.052;13.820;2022-07-29T12:04:51;7.93;;;4.57;;
7841;SDS011;3966;51.052;13.820;2022-07-29T12:07:16;7.22;;;5.10;;
7841;SDS011;3966;51.052;13.820;2022-07-29T12:09:49;6.75;;;4.25;;
7841;SDS011;3966;51.052;13.820;2022-07-29T12:14:43;4.22;;;2.40;;
7841;SDS011;3966;51.052;13.820;2022-07-29T12:19:57;5.45;;;3.42;;
7841;SDS011;3966;51.052;13.820;2022-07-29T12:22:28;6.93;;;3.85;;
7841;SDS011;3966;51.052;13.820;2022-07-29T12:24:55;4.45;;;3.55;;
7841;SDS011;3966;51.052;13.820;2022-07-29T12:27:25;5.07;;;4.57;;
7841;SDS011;3966;51.052;13.820;2022-07-29T12:29:58;9.75;;;4.93;;
7841;SDS011;3966;51.052;13.820;2022-07-29T12:32:35;8.68;;;4.78;;
7841;SDS011;3966;51.052;13.820;2022-07-29T12:35:05;12.50;;;5.57;;
7841;SDS011;3966;51.052;13.820;2022-07-29T12:37:34;9.15;;;5.80;;
7841;SDS011;3966;51.052;13.820;2022-07-29T12:40:02;9.93;;;5.38;;
7841;SDS011;3966;51.052;13.820;2022-07-29T12:42:28;7.15;;;4.35;;
7841;SDS011;3966;51.052;13.820;2022-07-29T12:44:54;3.83;;;2.58;;
7841;SDS011;3966;51.052;13.820;2022-07-29T12:47:20;5.05;;;4.47;;
7841;SDS011;3966;51.052;13.820;2022-07-29T12:49:46;4.10;;;3.00;;
7841;SDS011;3966;51.052;13.820;2022-07-29T12:52:25;10.73;;;3.35;;
7841;SDS011;3966;51.052;13.820;2022-07-29T12:54:55;4.72;;;3.47;;
7841;SDS011;3966;51.052;13.820;2022-07-29T12:57:21;5.22;;;3.15;;
7841;SDS011;3966;51.052;13.820;2022-07-29T13:02:33;2.92;;;2.45;;
7841;SDS011;3966;51.052;13.820;2022-07-29T13:04:59;4.00;;;2.25;;
7841;SDS011;3966;51.052;13.820;2022-07-29T13:07:27;3.80;;;1.85;;
7841;SDS011;3966;51.052;13.820;2022-07-29T13:09:55;2.67;;;2.10;;
7841;SDS011;3966;51.052;13.820;2022-07-29T13:15:29;4.38;;;2.80;;
7841;SDS011;3966;51.052;13.820;2022-07-29T13:17:55;2.47;;;2.22;;
7841;SDS011;3966;51.052;13.820;2022-07-29T13:20:23;2.28;;;2.08;;
7841;SDS011;3966;51.052;13.820;2022-07-29T13:22:50;2.13;;;1.95;;
7841;SDS011;3966;51.052;13.820;2022-07-29T13:25:23;2.05;;;1.95;;
7841;SDS011;3966;51.052;13.820;2022-07-29T13:27:50;3.72;;;2.45;;
7841;SDS011;3966;51.052;13.820;2022-07-29T13:30:15;8.35;;;2.40;;
7841;SDS011;3966;51.052;13.820;2022-07-29T13:32:41;3.38;;;2.10;;
7841;SDS011;3966;51.052;13.820;2022-07-29T13:35:07;6.63;;;2.15;;
7841;SDS011;3966;51.052;13.820;2022-07-29T13:37:33;2.22;;;2.13;;
7841;SDS011;3966;51.052;13.820;2022-07-29T13:40:03;2.20;;;2.00;;
7841;SDS011;3966;51.052;13.820;2022-07-29T13:42:31;2.30;;;2.10;;
7841;SDS011;3966;51.052;13.820;2022-07-29T13:44:57;2.33;;;1.70;;
7841;SDS011;3966;51.052;13.820;2022-07-29T13:47:23;3.08;;;1.90;;
7841;SDS011;3966;51.052;13.820;2022-07-29T13:49:49;4.38;;;2.10;;
7841;SDS011;3966;51.052;13.820;2022-07-29T13:52:15;4.60;;;1.92;;
7841;SDS011;3966;51.052;13.820;2022-07-29T13:54:41;2.35;;;2.15;;
7841;SDS011;3966;51.052;13.820;2022-07-29T13:57:07;2.83;;;2.00;;
7841;SDS011;3966;51.052;13.820;2022-07-29T13:59:32;2.17;;;1.85;;
7841;SDS011;3966;51.052;13.820;2022-07-29T14:01:58;2.25;;;2.10;;
7841;SDS011;3966;51.052;13.820;2022-07-29T14:04:24;2.38;;;2.05;;
7841;SDS011;3966;51.052;13.820;2022-07-29T14:06:50;5.47;;;2.22;;
7841;SDS011;3966;51.052;13.820;2022-07-29T14:09:16;4.78;;;1.95;;
7841;SDS011;3966;51.052;13.820;2022-07-29T14:11:42;4.95;;;2.35;;
7841;SDS011;3966;51.052;13.820;2022-07-29T14:14:07;2.58;;;2.38;;
7841;SDS011;3966;51.052;13.820;2022-07-29T14:16:35;2.20;;;2.03;;
7841;SDS011;3966;51.052;13.820;2022-07-29T14:19:00;5.15;;;1.95;;
7841;SDS011;3966;51.052;13.820;2022-07-29T14:21:26;3.03;;;1.90;;
7841;SDS011;3966;51.052;13.820;2022-07-29T14:23:52;5.68;;;2.25;;
7841;SDS011;3966;51.052;13.820;2022-07-29T14:26:19;3.28;;;2.10;;
7841;SDS011;3966;51.052;13.820;2022-07-29T14:28:45;2.60;;;2.05;;
7841;SDS011;3966;51.052;13.820;2022-07-29T14:31:10;2.42;;;2.22;;
7841;SDS011;3966;51.052;13.820;2022-07-29T14:33:36;4.75;;;2.42;;
7841;SDS011;3966;51.052;13.820;2022-07-29T14:36:02;5.30;;;2.42;;
7841;SDS011;3966;51.052;13.820;2022-07-29T14:38:28;5.00;;;2.72;;
7841;SDS011;3966;51.052;13.820;2022-07-29T14:40:53;4.78;;;2.60;;
7841;SDS011;3966;51.052;13.820;2022-07-29T14:43:19;6.45;;;3.42;;
7841;SDS011;3966;51.052;13.820;2022-07-29T14:45:44;5.95;;;3.63;;
7841;SDS011;3966;51.052;13.820;2022-07-29T14:48:10;5.00;;;3.88;;
7841;SDS011;3966;51.052;13.820;2022-07-29T14:50:36;5.70;;;3.80;;
7841;SDS011;3966;51.052;13.820;2022-07-29T14:53:02;5.72;;;3.90;;
7841;SDS011;3966;51.052;13.820;2022-07-29T14:55:28;10.25;;;4.57;;
7841;SDS011;3966;51.052;13.820;2022-07-29T14:57:54;7.25;;;5.00;;
7841;SDS011;3966;51.052;13.820;2022-07-29T15:00:20;8.98;;;5.20;;
7841;SDS011;3966;51.052;13.820;2022-07-29T15:02:46;8.05;;;5.20;;
7841;SDS011;3966;51.052;13.820;2022-07-29T15:05:12;8.38;;;5.35;;
7841;SDS011;3966;51.052;13.820;2022-07-29T15:07:38;9.65;;;5.10;;
7841;SDS011;3966;51.052;13.820;2022-07-29T15:10:03;6.97;;;5.50;;
7841;SDS011;3966;51.052;13.820;2022-07-29T15:12:30;9.73;;;6.20;;
7841;SDS011;3966;51.052;13.820;2022-07-29T15:14:56;12.00;;;6.45;;
7841;SDS011;3966;51.052;13.820;2022-07-29T15:17:21;11.50;;;7.45;;
7841;SDS011;3966;51.052;13.820;2022-07-29T15:19:47;11.38;;;6.75;;
7841;SDS011;3966;51.052;13.820;2022-07-29T15:22:12;11.57;;;7.15;;
7841;SDS011;3966;51.052;13.820;2022-07-29T15:24:38;11.85;;;6.43;;
7841;SDS011;3966;51.052;13.820;2022-07-29T15:27:03;9.68;;;6.53;;
7841;SDS011;3966;51.052;13.820;2022-07-29T15:29:29;13.82;;;7.13;;
7841;SDS011;3966;51.052;13.820;2022-07-29T15:31:55;10.60;;;7.55;;
7841;SDS011;3966;51.052;13.820;2022-07-29T15:34:20;13.35;;;7.18;;
7841;SDS011;3966;51.052;13.820;2022-07-29T15:36:48;12.25;;;7.22;;
7841;SDS011;3966;51.052;13.820;2022-07-29T15:39:14;11.07;;;6.75;;
7841;SDS011;3966;51.052;13.820;2022-07-29T15:41:39;11.27;;;6.38;;
7841;SDS011;3966;51.052;13.820;2022-07-29T15:44:05;9.05;;;5.97;;